sensor_id;sensor_type;location;lat;lon;timestamp;temperature;humidity
81311;DHT22;70779;52.506;5.492;2023-12-07T05:46:24;1.40;70.10
81311;DHT22;70779;52.506;5.492;2023-12-07T05:48:50;1.40;70.10
81311;DHT22;70779;52.506;5.492;2023-12-07T05:51:17;1.40;70.10
81311;DHT22;70779;52.506;5.492;2023-12-07T05:53:43;1.40;70.10
81311;DHT22;70779;52.506;5.492;2023-12-07T05:56:10;1.40;70.20
81311;DHT22;70779;52.506;5.492;2023-12-07T05:58:37;1.40;70.20
81311;DHT22;70779;52.506;5.492;2023-12-07T06:01:04;1.40;70.10
81311;DHT22;70779;52.506;5.492;2023-12-07T06:03:31;1.40;70.20
81311;DHT22;70779;52.506;5.492;2023-12-07T06:05:58;1.40;70.20
81311;DHT22;70779;52.506;5.492;2023-12-07T06:08:24;1.40;70.20
81311;DHT22;70779;52.506;5.492;2023-12-07T06:10:50;1.40;70.30
81311;DHT22;70779;52.506;5.492;2023-12-07T06:13:16;1.40;70.30
81311;DHT22;70779;52.506;5.492;2023-12-07T06:15:42;1.40;70.30
81311;DHT22;70779;52.506;5.492;2023-12-07T06:18:08;1.40;70.30
81311;DHT22;70779;52.506;5.492;2023-12-07T06:20:34;1.40;70.30
81311;DHT22;70779;52.506;5.492;2023-12-07T06:23:01;1.40;70.40
81311;DHT22;70779;52.506;5.492;2023-12-07T06:25:28;1.40;70.40
81311;DHT22;70779;52.506;5.492;2023-12-07T06:27:54;1.40;70.30
81311;DHT22;70779;52.506;5.492;2023-12-07T06:30:22;1.40;70.30
81311;DHT22;70779;52.506;5.492;2023-12-07T06:32:48;1.40;70.30
81311;DHT22;70779;52.506;5.492;2023-12-07T06:35:14;1.40;70.30
81311;DHT22;70779;52.506;5.492;2023-12-07T06:37:40;1.40;70.30
81311;DHT22;70779;52.506;5.492;2023-12-07T06:40:09;1.40;70.30
81311;DHT22;70779;52.506;5.492;2023-12-07T06:42:36;1.40;70.20
81311;DHT22;70779;52.506;5.492;2023-12-07T06:45:02;1.40;70.20
81311;DHT22;70779;52.506;5.492;2023-12-07T06:47:28;1.40;70.20
81311;DHT22;70779;52.506;5.492;2023-12-07T06:49:55;1.40;70.20
81311;DHT22;70779;52.506;5.492;2023-12-07T06:52:22;1.40;70.20
81311;DHT22;70779;52.506;5.492;2023-12-07T06:54:48;1.40;70.20
81311;DHT22;70779;52.506;5.492;2023-12-07T06:57:14;1.40;70.30
81311;DHT22;70779;52.506;5.492;2023-12-07T06:59:40;1.40;70.30
81311;DHT22;70779;52.506;5.492;2023-12-07T07:02:07;1.40;70.30
81311;DHT22;70779;52.506;5.492;2023-12-07T07:04:33;1.40;70.40
81311;DHT22;70779;52.506;5.492;2023-12-07T07:06:59;1.40;70.50
81311;DHT22;70779;52.506;5.492;2023-12-07T07:09:25;1.50;70.40
81311;DHT22;70779;52.506;5.492;2023-12-07T07:11:51;1.50;70.50
81311;DHT22;70779;52.506;5.492;2023-12-07T07:14:17;1.50;70.60
81311;DHT22;70779;52.506;5.492;2023-12-07T07:16:43;1.60;70.60
81311;DHT22;70779;52.506;5.492;2023-12-07T07:19:10;1.60;70.80
81311;DHT22;70779;52.506;5.492;2023-12-07T07:21:36;1.70;70.90
81311;DHT22;70779;52.506;5.492;2023-12-07T07:24:02;1.80;71.00
81311;DHT22;70779;52.506;5.492;2023-12-07T07:26:28;1.80;71.00
81311;DHT22;70779;52.506;5.492;2023-12-07T07:28:54;1.90;71.00
81311;DHT22;70779;52.506;5.492;2023-12-07T07:31:21;1.90;71.00
81311;DHT22;70779;52.506;5.492;2023-12-07T07:33:47;2.00;71.10
81311;DHT22;70779;52.506;5.492;2023-12-07T07:36:14;2.10;71.10
81311;DHT22;70779;52.506;5.492;2023-12-07T07:38:43;2.10;71.20
81311;DHT22;70779;52.506;5.492;2023-12-07T07:41:12;2.20;71.20
81311;DHT22;70779;52.506;5.492;2023-12-07T07:43:38;2.20;71.20
81311;DHT22;70779;52.506;5.492;2023-12-07T07:46:04;2.20;71.20
81311;DHT22;70779;52.506;5.492;2023-12-07T07:48:31;2.30;71.20
81311;DHT22;70779;52.506;5.492;2023-12-07T07:50:57;2.30;71.20
81311;DHT22;70779;52.506;5.492;2023-12-07T07:53:23;2.40;71.30
81311;DHT22;70779;52.506;5.492;2023-12-07T07:55:50;2.40;71.30
81311;DHT22;70779;52.506;5.492;2023-12-07T07:58:16;2.40;71.30
81311;DHT22;70779;52.506;5.492;2023-12-07T08:00:42;2.40;71.40
81311;DHT22;70779;52.506;5.492;2023-12-07T08:03:08;2.50;71.30
81311;DHT22;70779;52.506;5.492;2023-12-07T08:05:34;2.50;71.50
81311;DHT22;70779;52.506;5.492;2023-12-07T08:08:00;2.50;71.50
81311;DHT22;70779;52.506;5.492;2023-12-07T08:10:27;2.50;71.50
81311;DHT22;70779;52.506;5.492;2023-12-07T08:12:53;2.50;71.60
81311;DHT22;70779;52.506;5.492;2023-12-07T08:15:19;2.70;71.70
81311;DHT22;70779;52.506;5.492;2023-12-07T08:17:46;2.70;71.50
81311;DHT22;70779;52.506;5.492;2023-12-07T08:20:12;2.70;71.40
81311;DHT22;70779;52.506;5.492;2023-12-07T08:22:40;2.80;71.50
81311;DHT22;70779;52.506;5.492;2023-12-07T08:25:10;2.80;71.40
81311;DHT22;70779;52.506;5.492;2023-12-07T08:27:37;2.80;71.40
81311;DHT22;70779;52.506;5.492;2023-12-07T08:30:04;2.80;71.50
81311;DHT22;70779;52.506;5.492;2023-12-07T08:32:30;2.80;71.50
81311;DHT22;70779;52.506;5.492;2023-12-07T08:34:57;2.80;71.40
81311;DHT22;70779;52.506;5.492;2023-12-07T08:40:05;2.80;71.50
81311;DHT22;70779;52.506;5.492;2023-12-07T08:42:31;2.80;71.50
81311;DHT22;70779;52.506;5.492;2023-12-07T08:44:58;2.80;71.50
81311;DHT22;70779;52.506;5.492;2023-12-07T08:47:24;2.80;71.60
81311;DHT22;70779;52.506;5.492;2023-12-07T08:49:53;2.80;71.50
81311;DHT22;70779;52.506;5.492;2023-12-07T08:52:19;2.80;71.50
81311;DHT22;70779;52.506;5.492;2023-12-07T08:54:45;2.90;71.60
81311;DHT22;70779;52.506;5.492;2023-12-07T08:57:12;2.90;71.70
81311;DHT22;70779;52.506;5.492;2023-12-07T08:59:38;2.90;71.70
81311;DHT22;70779;52.506;5.492;2023-12-07T09:02:05;2.90;71.50
81311;DHT22;70779;52.506;5.492;2023-12-07T09:04:31;2.90;71.50
81311;DHT22;70779;52.506;5.492;2023-12-07T09:06:57;3.00;71.50
81311;DHT22;70779;52.506;5.492;2023-12-07T09:09:23;3.00;71.50
81311;DHT22;70779;52.506;5.492;2023-12-07T09:11:51;3.00;71.50
81311;DHT22;70779;52.506;5.492;2023-12-07T09:14:17;3.00;71.50
81311;DHT22;70779;52.506;5.492;2023-12-07T09:16:44;3.10;71.60
81311;DHT22;70779;52.506;5.492;2023-12-07T09:19:12;3.10;71.50
81311;DHT22;70779;52.506;5.492;2023-12-07T09:21:39;3.10;71.40
81311;DHT22;70779;52.506;5.492;2023-12-07T09:24:05;3.20;71.20
81311;DHT22;70779;52.506;5.492;2023-12-07T09:26:32;3.20;71.40
81311;DHT22;70779;52.506;5.492;2023-12-07T09:28:58;3.30;71.40
81311;DHT22;70779;52.506;5.492;2023-12-07T09:31:24;3.30;71.30
81311;DHT22;70779;52.506;5.492;2023-12-07T09:33:51;3.30;71.20
81311;DHT22;70779;52.506;5.492;2023-12-07T09:36:19;3.30;71.30
81311;DHT22;70779;52.506;5.492;2023-12-07T09:38:47;3.30;70.70
81311;DHT22;70779;52.506;5.492;2023-12-07T09:41:13;3.30;70.80
81311;DHT22;70779;52.506;5.492;2023-12-07T09:43:39;3.30;70.90
81311;DHT22;70779;52.506;5.492;2023-12-07T09:46:05;3.30;70.80
81311;DHT22;70779;52.506;5.492;2023-12-07T09:48:32;3.30;70.80
81311;DHT22;70779;52.506;5.492;2023-12-07T09:50:59;3.30;70.80
81311;DHT22;70779;52.506;5.492;2023-12-07T09:53:27;3.30;70.80
81311;DHT22;70779;52.506;5.492;2023-12-07T09:55:57;3.30;70.60
81311;DHT22;70779;52.506;5.492;2023-12-07T09:58:23;3.30;70.70
81311;DHT22;70779;52.506;5.492;2023-12-07T10:00:49;3.30;70.70
81311;DHT22;70779;52.506;5.492;2023-12-07T10:03:19;3.30;70.80
81311;DHT22;70779;52.506;5.492;2023-12-07T10:06:04;3.20;70.70
81311;DHT22;70779;52.506;5.492;2023-12-07T10:08:32;3.10;71.20
81311;DHT22;70779;52.506;5.492;2023-12-07T10:11:08;3.20;71.20
81311;DHT22;70779;52.506;5.492;2023-12-07T10:13:35;3.20;71.20
81311;DHT22;70779;52.506;5.492;2023-12-07T10:16:12;3.30;71.40
81311;DHT22;70779;52.506;5.492;2023-12-07T10:18:39;3.30;71.20
81311;DHT22;70779;52.506;5.492;2023-12-07T10:21:07;3.40;70.90
81311;DHT22;70779;52.506;5.492;2023-12-07T10:23:36;3.50;70.90
81311;DHT22;70779;52.506;5.492;2023-12-07T10:26:02;3.40;71.00
81311;DHT22;70779;52.506;5.492;2023-12-07T10:28:29;3.50;71.00
81311;DHT22;70779;52.506;5.492;2023-12-07T10:30:56;3.50;71.00
81311;DHT22;70779;52.506;5.492;2023-12-07T10:33:23;3.60;71.00
81311;DHT22;70779;52.506;5.492;2023-12-07T10:35:49;3.60;71.00
81311;DHT22;70779;52.506;5.492;2023-12-07T10:38:15;3.70;70.90
81311;DHT22;70779;52.506;5.492;2023-12-07T10:40:41;3.80;70.60
81311;DHT22;70779;52.506;5.492;2023-12-07T10:43:08;3.80;70.40
81311;DHT22;70779;52.506;5.492;2023-12-07T10:45:35;3.80;70.50
81311;DHT22;70779;52.506;5.492;2023-12-07T10:48:08;3.80;70.50
81311;DHT22;70779;52.506;5.492;2023-12-07T10:50:36;3.80;70.40
81311;DHT22;70779;52.506;5.492;2023-12-07T10:53:21;3.80;70.10
81311;DHT22;70779;52.506;5.492;2023-12-07T10:55:56;3.80;70.30
81311;DHT22;70779;52.506;5.492;2023-12-07T10:58:23;3.80;70.30
81311;DHT22;70779;52.506;5.492;2023-12-07T11:00:53;3.70;70.30
81311;DHT22;70779;52.506;5.492;2023-12-07T11:03:21;3.80;70.20
81311;DHT22;70779;52.506;5.492;2023-12-07T11:05:48;3.80;70.20
81311;DHT22;70779;52.506;5.492;2023-12-07T11:11:24;3.80;70.20
81311;DHT22;70779;52.506;5.492;2023-12-07T11:13:58;3.90;70.10
81311;DHT22;70779;52.506;5.492;2023-12-07T11:18:58;3.90;70.20
81311;DHT22;70779;52.506;5.492;2023-12-07T11:21:24;3.90;70.10
81311;DHT22;70779;52.506;5.492;2023-12-07T11:23:50;3.90;70.20
81311;DHT22;70779;52.506;5.492;2023-12-07T11:26:20;3.90;70.20
81311;DHT22;70779;52.506;5.492;2023-12-07T11:28:46;3.90;70.10
81311;DHT22;70779;52.506;5.492;2023-12-07T11:31:12;3.90;69.80
81311;DHT22;70779;52.506;5.492;2023-12-07T11:33:39;3.90;69.70
81311;DHT22;70779;52.506;5.492;2023-12-07T11:36:10;3.90;69.60
81311;DHT22;70779;52.506;5.492;2023-12-07T11:41:42;3.90;69.70
81311;DHT22;70779;52.506;5.492;2023-12-07T11:44:10;3.90;69.80
81311;DHT22;70779;52.506;5.492;2023-12-07T11:46:37;3.90;69.90
81311;DHT22;70779;52.506;5.492;2023-12-07T11:49:04;4.00;70.00
81311;DHT22;70779;52.506;5.492;2023-12-07T11:51:31;4.00;69.70
81311;DHT22;70779;52.506;5.492;2023-12-07T11:53:57;4.00;69.40
81311;DHT22;70779;52.506;5.492;2023-12-07T11:56:23;4.00;69.30
81311;DHT22;70779;52.506;5.492;2023-12-07T11:58:49;4.00;69.40
81311;DHT22;70779;52.506;5.492;2023-12-07T12:01:17;4.00;69.50
81311;DHT22;70779;52.506;5.492;2023-12-07T12:03:43;4.00;69.40
81311;DHT22;70779;52.506;5.492;2023-12-07T12:06:09;4.00;69.30
81311;DHT22;70779;52.506;5.492;2023-12-07T12:08:41;4.00;69.10
81311;DHT22;70779;52.506;5.492;2023-12-07T12:11:08;4.00;69.40
81311;DHT22;70779;52.506;5.492;2023-12-07T12:13:35;4.00;69.10
81311;DHT22;70779;52.506;5.492;2023-12-07T12:16:01;4.00;69.10
81311;DHT22;70779;52.506;5.492;2023-12-07T12:18:28;3.90;69.00
81311;DHT22;70779;52.506;5.492;2023-12-07T12:20:54;3.90;69.00
81311;DHT22;70779;52.506;5.492;2023-12-07T12:23:21;3.90;69.30
81311;DHT22;70779;52.506;5.492;2023-12-07T12:25:47;3.90;69.50
81311;DHT22;70779;52.506;5.492;2023-12-07T12:28:18;3.90;69.60
81311;DHT22;70779;52.506;5.492;2023-12-07T12:30:47;3.90;69.50
81311;DHT22;70779;52.506;5.492;2023-12-07T12:33:14;3.90;69.70
81311;DHT22;70779;52.506;5.492;2023-12-07T12:35:40;3.90;69.80
81311;DHT22;70779;52.506;5.492;2023-12-07T12:38:13;3.90;69.70
81311;DHT22;70779;52.506;5.492;2023-12-07T12:40:39;3.90;69.80
81311;DHT22;70779;52.506;5.492;2023-12-07T12:43:07;4.00;70.00
81311;DHT22;70779;52.506;5.492;2023-12-07T12:45:33;4.00;70.00
81311;DHT22;70779;52.506;5.492;2023-12-07T12:48:00;4.10;69.80
81311;DHT22;70779;52.506;5.492;2023-12-07T12:50:32;4.20;69.30
81311;DHT22;70779;52.506;5.492;2023-12-07T12:52:59;4.10;69.20
81311;DHT22;70779;52.506;5.492;2023-12-07T12:55:26;4.00;69.20
81311;DHT22;70779;52.506;5.492;2023-12-07T12:57:52;4.00;69.30
81311;DHT22;70779;52.506;5.492;2023-12-07T13:00:18;4.00;69.30
81311;DHT22;70779;52.506;5.492;2023-12-07T13:02:45;4.00;69.60
81311;DHT22;70779;52.506;5.492;2023-12-07T13:05:11;3.90;69.60
81311;DHT22;70779;52.506;5.492;2023-12-07T13:07:38;4.00;69.80
81311;DHT22;70779;52.506;5.492;2023-12-07T13:10:04;4.00;69.80
81311;DHT22;70779;52.506;5.492;2023-12-07T13:12:33;4.00;69.80
81311;DHT22;70779;52.506;5.492;2023-12-07T13:15:01;4.10;69.90
81311;DHT22;70779;52.506;5.492;2023-12-07T13:17:27;4.20;69.70
81311;DHT22;70779;52.506;5.492;2023-12-07T13:19:53;4.20;69.70
81311;DHT22;70779;52.506;5.492;2023-12-07T13:22:20;4.20;69.60
81311;DHT22;70779;52.506;5.492;2023-12-07T13:24:47;4.20;69.60
81311;DHT22;70779;52.506;5.492;2023-12-07T13:27:13;4.10;69.60
81311;DHT22;70779;52.506;5.492;2023-12-07T13:29:41;4.10;69.50
81311;DHT22;70779;52.506;5.492;2023-12-07T13:32:07;4.10;69.70
81311;DHT22;70779;52.506;5.492;2023-12-07T13:34:34;4.20;69.70
81311;DHT22;70779;52.506;5.492;2023-12-07T13:37:00;4.20;69.80
81311;DHT22;70779;52.506;5.492;2023-12-07T13:39:26;4.20;69.70
81311;DHT22;70779;52.506;5.492;2023-12-07T13:41:54;4.20;69.70
81311;DHT22;70779;52.506;5.492;2023-12-07T13:44:20;4.20;69.90
81311;DHT22;70779;52.506;5.492;2023-12-07T13:46:47;4.20;70.10
81311;DHT22;70779;52.506;5.492;2023-12-07T13:49:13;4.20;70.00
81311;DHT22;70779;52.506;5.492;2023-12-07T13:51:43;4.10;70.30
81311;DHT22;70779;52.506;5.492;2023-12-07T13:54:09;4.20;70.20
81311;DHT22;70779;52.506;5.492;2023-12-07T13:56:36;4.20;70.00
81311;DHT22;70779;52.506;5.492;2023-12-07T13:59:03;4.30;70.00
81311;DHT22;70779;52.506;5.492;2023-12-07T14:01:29;4.20;70.10
81311;DHT22;70779;52.506;5.492;2023-12-07T14:03:58;4.20;70.30
81311;DHT22;70779;52.506;5.492;2023-12-07T14:06:24;4.20;70.30
81311;DHT22;70779;52.506;5.492;2023-12-07T14:08:51;4.30;70.10
81311;DHT22;70779;52.506;5.492;2023-12-07T14:11:17;4.30;70.20
81311;DHT22;70779;52.506;5.492;2023-12-07T14:13:44;4.20;70.30
81311;DHT22;70779;52.506;5.492;2023-12-07T14:16:14;4.30;70.30
81311;DHT22;70779;52.506;5.492;2023-12-07T14:18:40;4.30;70.20
81311;DHT22;70779;52.506;5.492;2023-12-07T14:21:06;4.20;70.40
81311;DHT22;70779;52.506;5.492;2023-12-07T14:23:32;4.30;70.10
81311;DHT22;70779;52.506;5.492;2023-12-07T14:25:58;4.30;70.10
81311;DHT22;70779;52.506;5.492;2023-12-07T14:28:25;4.20;70.20
81311;DHT22;70779;52.506;5.492;2023-12-07T14:30:51;4.30;70.20
81311;DHT22;70779;52.506;5.492;2023-12-07T14:33:22;4.20;70.20
81311;DHT22;70779;52.506;5.492;2023-12-07T14:35:49;4.20;70.30
81311;DHT22;70779;52.506;5.492;2023-12-07T14:38:15;4.20;70.40
81311;DHT22;70779;52.506;5.492;2023-12-07T14:40:41;4.20;70.40
81311;DHT22;70779;52.506;5.492;2023-12-07T14:43:07;4.20;70.50
81311;DHT22;70779;52.506;5.492;2023-12-07T14:45:33;4.20;70.50
81311;DHT22;70779;52.506;5.492;2023-12-07T14:47:59;4.20;70.50
81311;DHT22;70779;52.506;5.492;2023-12-07T14:50:25;4.30;70.50
81311;DHT22;70779;52.506;5.492;2023-12-07T14:52:51;4.30;70.20
81311;DHT22;70779;52.506;5.492;2023-12-07T14:55:17;4.20;70.30
81311;DHT22;70779;52.506;5.492;2023-12-07T14:57:44;4.20;70.40
81311;DHT22;70779;52.506;5.492;2023-12-07T15:00:11;4.20;70.40
81311;DHT22;70779;52.506;5.492;2023-12-07T15:02:38;4.30;70.20
81311;DHT22;70779;52.506;5.492;2023-12-07T15:05:04;4.20;70.10
81311;DHT22;70779;52.506;5.492;2023-12-07T15:07:30;4.20;70.20
81311;DHT22;70779;52.506;5.492;2023-12-07T15:09:56;4.20;70.30
81311;DHT22;70779;52.506;5.492;2023-12-07T15:12:23;4.20;70.20
81311;DHT22;70779;52.506;5.492;2023-12-07T15:14:51;4.20;70.20
81311;DHT22;70779;52.506;5.492;2023-12-07T15:17:17;4.10;70.30
81311;DHT22;70779;52.506;5.492;2023-12-07T15:19:44;4.10;70.40
81311;DHT22;70779;52.506;5.492;2023-12-07T15:22:10;4.10;70.50
81311;DHT22;70779;52.506;5.492;2023-12-07T15:24:36;4.10;70.50
81311;DHT22;70779;52.506;5.492;2023-12-07T15:27:03;4.10;70.60
81311;DHT22;70779;52.506;5.492;2023-12-07T15:29:30;4.10;70.60
81311;DHT22;70779;52.506;5.492;2023-12-07T15:31:56;4.10;70.70
81311;DHT22;70779;52.506;5.492;2023-12-07T15:34:22;4.10;70.60
81311;DHT22;70779;52.506;5.492;2023-12-07T15:36:48;4.10;70.60
81311;DHT22;70779;52.506;5.492;2023-12-07T15:39:14;4.00;70.60
81311;DHT22;70779;52.506;5.492;2023-12-07T15:41:41;4.00;70.90
81311;DHT22;70779;52.506;5.492;2023-12-07T15:44:09;4.00;70.90
81311;DHT22;70779;52.506;5.492;2023-12-07T15:46:35;4.00;71.10
81311;DHT22;70779;52.506;5.492;2023-12-07T15:49:01;4.00;70.90
81311;DHT22;70779;52.506;5.492;2023-12-07T15:51:27;4.00;70.90
81311;DHT22;70779;52.506;5.492;2023-12-07T15:53:53;4.00;70.90
81311;DHT22;70779;52.506;5.492;2023-12-07T15:56:19;4.00;71.00
81311;DHT22;70779;52.506;5.492;2023-12-07T15:58:45;4.00;70.90
81311;DHT22;70779;52.506;5.492;2023-12-07T16:01:11;3.90;71.10
81311;DHT22;70779;52.506;5.492;2023-12-07T16:03:37;3.90;71.10
81311;DHT22;70779;52.506;5.492;2023-12-07T16:06:03;3.90;71.20
81311;DHT22;70779;52.506;5.492;2023-12-07T16:08:30;3.90;71.20
81311;DHT22;70779;52.506;5.492;2023-12-07T16:10:56;4.00;71.00
81311;DHT22;70779;52.506;5.492;2023-12-07T16:13:22;4.00;71.20
81311;DHT22;70779;52.506;5.492;2023-12-07T16:15:48;4.00;71.20
81311;DHT22;70779;52.506;5.492;2023-12-07T16:18:14;4.00;71.30
81311;DHT22;70779;52.506;5.492;2023-12-07T16:20:40;4.00;71.20
81311;DHT22;70779;52.506;5.492;2023-12-07T16:23:06;4.00;71.30
81311;DHT22;70779;52.506;5.492;2023-12-07T16:25:32;4.00;71.40
81311;DHT22;70779;52.506;5.492;2023-12-07T16:27:58;4.00;71.40
81311;DHT22;70779;52.506;5.492;2023-12-07T16:30:24;4.00;71.50
81311;DHT22;70779;52.506;5.492;2023-12-07T16:32:50;4.10;71.50
81311;DHT22;70779;52.506;5.492;2023-12-07T16:35:16;4.10;71.50
81311;DHT22;70779;52.506;5.492;2023-12-07T16:37:42;4.10;71.50
81311;DHT22;70779;52.506;5.492;2023-12-07T16:40:08;4.20;71.50
81311;DHT22;70779;52.506;5.492;2023-12-07T16:42:38;4.20;71.50
81311;DHT22;70779;52.506;5.492;2023-12-07T16:45:05;4.20;71.50
81311;DHT22;70779;52.506;5.492;2023-12-07T16:47:31;4.20;71.60
81311;DHT22;70779;52.506;5.492;2023-12-07T16:49:57;4.20;71.60
81311;DHT22;70779;52.506;5.492;2023-12-07T16:52:25;4.20;71.70
81311;DHT22;70779;52.506;5.492;2023-12-07T16:54:51;4.30;71.80
81311;DHT22;70779;52.506;5.492;2023-12-07T16:57:21;4.30;71.70
81311;DHT22;70779;52.506;5.492;2023-12-07T16:59:47;4.40;71.70
81311;DHT22;70779;52.506;5.492;2023-12-07T17:02:13;4.40;71.70
81311;DHT22;70779;52.506;5.492;2023-12-07T17:04:39;4.50;71.70
81311;DHT22;70779;52.506;5.492;2023-12-07T17:07:05;4.50;71.70
81311;DHT22;70779;52.506;5.492;2023-12-07T17:09:31;4.50;71.70
81311;DHT22;70779;52.506;5.492;2023-12-07T17:11:57;4.60;71.70
81311;DHT22;70779;52.506;5.492;2023-12-07T17:14:23;4.60;71.70
81311;DHT22;70779;52.506;5.492;2023-12-07T17:16:50;4.60;71.80
81311;DHT22;70779;52.506;5.492;2023-12-07T17:19:17;4.60;72.00
81311;DHT22;70779;52.506;5.492;2023-12-07T17:21:45;4.70;72.10
81311;DHT22;70779;52.506;5.492;2023-12-07T17:24:11;4.70;72.10
81311;DHT22;70779;52.506;5.492;2023-12-07T17:26:38;4.70;72.10
81311;DHT22;70779;52.506;5.492;2023-12-07T17:29:08;4.80;72.10
81311;DHT22;70779;52.506;5.492;2023-12-07T17:31:35;4.90;72.20
81311;DHT22;70779;52.506;5.492;2023-12-07T17:34:01;4.90;72.20
81311;DHT22;70779;52.506;5.492;2023-12-07T17:36:27;5.00;72.20
81311;DHT22;70779;52.506;5.492;2023-12-07T17:38:53;5.00;72.20
81311;DHT22;70779;52.506;5.492;2023-12-07T17:41:19;5.00;72.30
81311;DHT22;70779;52.506;5.492;2023-12-07T17:43:45;5.00;72.30
81311;DHT22;70779;52.506;5.492;2023-12-07T17:46:11;5.00;72.40
81311;DHT22;70779;52.506;5.492;2023-12-07T17:48:37;5.00;72.20
81311;DHT22;70779;52.506;5.492;2023-12-07T17:51:04;5.00;72.20
81311;DHT22;70779;52.506;5.492;2023-12-07T17:53:30;5.00;72.10
81311;DHT22;70779;52.506;5.492;2023-12-07T17:55:57;5.00;72.00
81311;DHT22;70779;52.506;5.492;2023-12-07T17:58:23;5.00;72.00
81311;DHT22;70779;52.506;5.492;2023-12-07T18:00:49;5.00;72.10
81311;DHT22;70779;52.506;5.492;2023-12-07T18:03:15;5.00;72.10
81311;DHT22;70779;52.506;5.492;2023-12-07T18:05:41;5.00;72.10
81311;DHT22;70779;52.506;5.492;2023-12-07T18:08:07;5.00;72.20
81311;DHT22;70779;52.506;5.492;2023-12-07T18:10:33;5.00;72.10
81311;DHT22;70779;52.506;5.492;2023-12-07T18:12:59;5.00;72.10
81311;DHT22;70779;52.506;5.492;2023-12-07T18:15:26;5.00;72.00
81311;DHT22;70779;52.506;5.492;2023-12-07T18:17:52;5.00;72.00
81311;DHT22;70779;52.506;5.492;2023-12-07T18:20:18;5.00;72.00
81311;DHT22;70779;52.506;5.492;2023-12-07T18:22:44;5.00;71.90
81311;DHT22;70779;52.506;5.492;2023-12-07T18:25:10;5.00;71.80
81311;DHT22;70779;52.506;5.492;2023-12-07T18:27:37;5.00;71.90
81311;DHT22;70779;52.506;5.492;2023-12-07T18:30:05;5.00;71.80
81311;DHT22;70779;52.506;5.492;2023-12-07T18:32:32;5.00;71.90
81311;DHT22;70779;52.506;5.492;2023-12-07T18:34:58;5.00;71.80
81311;DHT22;70779;52.506;5.492;2023-12-07T18:37:24;5.00;71.80
81311;DHT22;70779;52.506;5.492;2023-12-07T18:39:50;5.00;71.80
81311;DHT22;70779;52.506;5.492;2023-12-07T18:42:16;5.00;71.70
81311;DHT22;70779;52.506;5.492;2023-12-07T18:44:43;5.00;71.70
81311;DHT22;70779;52.506;5.492;2023-12-07T18:47:09;5.10;71.30
81311;DHT22;70779;52.506;5.492;2023-12-07T18:49:35;5.10;71.30
81311;DHT22;70779;52.506;5.492;2023-12-07T18:52:02;5.10;71.10
81311;DHT22;70779;52.506;5.492;2023-12-07T18:54:30;5.20;71.00
81311;DHT22;70779;52.506;5.492;2023-12-07T18:57:02;5.30;70.70
81311;DHT22;70779;52.506;5.492;2023-12-07T18:59:30;5.30;70.60
81311;DHT22;70779;52.506;5.492;2023-12-07T19:01:56;5.30;70.30
81311;DHT22;70779;52.506;5.492;2023-12-07T19:04:22;5.30;70.20
81311;DHT22;70779;52.506;5.492;2023-12-07T19:06:48;5.30;70.10
81311;DHT22;70779;52.506;5.492;2023-12-07T19:09:15;5.30;70.00
81311;DHT22;70779;52.506;5.492;2023-12-07T19:11:46;5.20;70.10
81311;DHT22;70779;52.506;5.492;2023-12-07T19:14:13;5.20;70.00
81311;DHT22;70779;52.506;5.492;2023-12-07T19:16:39;5.20;70.00
81311;DHT22;70779;52.506;5.492;2023-12-07T19:19:05;5.10;69.90
81311;DHT22;70779;52.506;5.492;2023-12-07T19:21:31;5.20;69.80
81311;DHT22;70779;52.506;5.492;2023-12-07T19:23:57;5.10;69.90
81311;DHT22;70779;52.506;5.492;2023-12-07T19:26:23;5.10;69.80
81311;DHT22;70779;52.506;5.492;2023-12-07T19:28:49;5.10;69.50
81311;DHT22;70779;52.506;5.492;2023-12-07T19:31:15;5.10;69.50
81311;DHT22;70779;52.506;5.492;2023-12-07T19:33:41;5.00;69.40
81311;DHT22;70779;52.506;5.492;2023-12-07T19:36:07;5.00;69.50
81311;DHT22;70779;52.506;5.492;2023-12-07T19:38:33;5.00;69.40
81311;DHT22;70779;52.506;5.492;2023-12-07T19:41:01;4.90;69.40
81311;DHT22;70779;52.506;5.492;2023-12-07T19:43:29;4.90;69.50
81311;DHT22;70779;52.506;5.492;2023-12-07T19:45:57;4.90;69.40
81311;DHT22;70779;52.506;5.492;2023-12-07T19:48:23;4.90;69.50
81311;DHT22;70779;52.506;5.492;2023-12-07T19:50:49;4.90;69.40
81311;DHT22;70779;52.506;5.492;2023-12-07T19:53:15;4.90;69.30
81311;DHT22;70779;52.506;5.492;2023-12-07T19:55:42;4.80;69.20
81311;DHT22;70779;52.506;5.492;2023-12-07T19:58:08;4.90;69.10
81311;DHT22;70779;52.506;5.492;2023-12-07T20:00:35;4.90;68.90
81311;DHT22;70779;52.506;5.492;2023-12-07T20:03:02;4.90;68.80
81311;DHT22;70779;52.506;5.492;2023-12-07T20:05:28;4.90;68.70
81311;DHT22;70779;52.506;5.492;2023-12-07T20:07:54;4.90;68.70
81311;DHT22;70779;52.506;5.492;2023-12-07T20:10:21;4.90;68.30
81311;DHT22;70779;52.506;5.492;2023-12-07T20:12:48;4.90;68.30
81311;DHT22;70779;52.506;5.492;2023-12-07T20:15:15;5.00;68.10
81311;DHT22;70779;52.506;5.492;2023-12-07T20:17:41;5.00;67.80
81311;DHT22;70779;52.506;5.492;2023-12-07T20:20:08;5.00;67.70
81311;DHT22;70779;52.506;5.492;2023-12-07T20:22:34;5.00;67.60
81311;DHT22;70779;52.506;5.492;2023-12-07T20:25:00;5.00;67.50
81311;DHT22;70779;52.506;5.492;2023-12-07T20:27:27;5.00;67.20
81311;DHT22;70779;52.506;5.492;2023-12-07T20:29:53;5.10;67.30
81311;DHT22;70779;52.506;5.492;2023-12-07T20:32:19;5.00;67.10
81311;DHT22;70779;52.506;5.492;2023-12-07T20:34:45;5.10;66.90
81311;DHT22;70779;52.506;5.492;2023-12-07T20:37:13;5.10;66.70
81311;DHT22;70779;52.506;5.492;2023-12-07T20:39:39;5.10;66.50
81311;DHT22;70779;52.506;5.492;2023-12-07T20:42:05;5.10;66.70
81311;DHT22;70779;52.506;5.492;2023-12-07T20:44:31;5.10;66.50
81311;DHT22;70779;52.506;5.492;2023-12-07T20:46:57;5.10;66.50
81311;DHT22;70779;52.506;5.492;2023-12-07T20:49:23;5.10;66.50
81311;DHT22;70779;52.506;5.492;2023-12-07T20:51:49;5.10;66.60
81311;DHT22;70779;52.506;5.492;2023-12-07T20:54:15;5.10;66.60
81311;DHT22;70779;52.506;5.492;2023-12-07T20:56:41;5.10;66.30
81311;DHT22;70779;52.506;5.492;2023-12-07T20:59:08;5.10;66.20
